createdAt,value
2018-11-06T00:00:12.121Z,0
2018-11-06T00:01:12.464Z,0
2018-11-06T00:02:12.464Z,0
2018-11-06T00:03:11.930Z,0
2018-11-06T00:04:12.185Z,0
2018-11-06T00:05:12.169Z,0
2018-11-06T00:06:12.154Z,0
2018-11-06T00:07:11.888Z,0
2018-11-06T00:08:12.137Z,0
2018-11-06T00:09:12.614Z,0
2018-11-06T00:10:11.862Z,0
2018-11-06T00:11:12.109Z,0
2018-11-06T00:12:12.084Z,0
2018-11-06T00:13:12.080Z,0
2018-11-06T00:14:12.334Z,0
2018-11-06T00:15:12.310Z,0
2018-11-06T00:16:12.045Z,0
2018-11-06T00:17:12.035Z,0
2018-11-06T00:18:12.023Z,0
2018-11-06T00:19:12.017Z,0
2018-11-06T00:20:12.251Z,0
2018-11-06T00:21:12.282Z,0
2018-11-06T00:22:11.974Z,0
2018-11-06T00:23:11.969Z,0
2018-11-06T00:24:12.203Z,0
2018-11-06T00:25:11.957Z,0
2018-11-06T00:26:12.187Z,0
2018-11-06T00:27:11.659Z,0
2018-11-06T00:28:11.652Z,0
2018-11-06T00:29:11.896Z,0
2018-11-06T00:30:11.884Z,0
2018-11-06T00:31:11.625Z,0
2018-11-06T00:32:11.859Z,0
2018-11-06T00:33:11.332Z,0
2018-11-06T00:34:12.048Z,0
2018-11-06T00:35:11.570Z,0
2018-11-06T00:36:11.937Z,0
2018-11-06T00:37:11.853Z,0
2018-11-06T00:38:12.083Z,0
2018-11-06T00:39:11.777Z,0
2018-11-06T00:40:11.766Z,0
2018-11-06T00:41:11.763Z,0
2018-11-06T00:42:11.751Z,0
2018-11-06T00:43:11.996Z,0
2018-11-06T00:44:11.724Z,0
2018-11-06T00:45:11.710Z,0
2018-11-06T00:46:11.956Z,0
2018-11-06T00:47:11.945Z,0
2018-11-06T00:48:11.934Z,0
2018-11-06T00:49:11.712Z,0
2018-11-06T00:50:11.399Z,0
2018-11-06T00:51:11.903Z,0
2018-11-06T00:52:11.896Z,0
2018-11-06T00:53:11.881Z,0
2018-11-06T00:54:11.867Z,0
2018-11-06T00:55:11.855Z,0
2018-11-06T00:56:11.591Z,0
2018-11-06T00:57:11.316Z,0
2018-11-06T00:58:11.825Z,0
2018-11-06T00:59:11.712Z,0
2018-11-06T01:00:11.280Z,0
2018-11-06T01:01:11.792Z,0
2018-11-06T01:02:11.773Z,0
2018-11-06T01:03:11.514Z,0
2018-11-06T01:04:11.763Z,0
2018-11-06T01:05:10.972Z,0
2018-11-06T01:06:11.473Z,0
2018-11-06T01:07:11.465Z,0
2018-11-06T01:08:11.197Z,0
2018-11-06T01:09:11.436Z,0
2018-11-06T01:10:11.684Z,0
2018-11-06T01:11:11.707Z,0
2018-11-06T01:12:11.405Z,0
2018-11-06T01:13:11.394Z,0
2018-11-06T01:14:11.644Z,0
2018-11-06T01:15:11.628Z,0
2018-11-06T01:16:11.354Z,0
2018-11-06T01:17:11.346Z,0
2018-11-06T01:18:10.814Z,0
2018-11-06T01:19:11.314Z,0
2018-11-06T01:20:11.050Z,0
2018-11-06T01:21:10.779Z,0
2018-11-06T01:22:11.539Z,0
2018-11-06T01:23:11.273Z,0
2018-11-06T01:24:11.263Z,0
2018-11-06T01:25:10.993Z,0
2018-11-06T01:26:11.480Z,0
2018-11-06T01:27:10.964Z,0
2018-11-06T01:28:11.472Z,0
2018-11-06T01:29:10.687Z,0
2018-11-06T01:30:11.196Z,0
2018-11-06T01:31:10.921Z,0
2018-11-06T01:32:11.306Z,0
2018-11-06T01:33:11.164Z,0
2018-11-06T01:34:10.889Z,0
2018-11-06T01:35:11.453Z,0
2018-11-06T01:36:11.125Z,0
2018-11-06T01:37:11.376Z,0
2018-11-06T01:38:10.981Z,0
2018-11-06T01:39:11.706Z,0
2018-11-06T01:40:11.347Z,0
2018-11-06T01:41:11.723Z,0
2018-11-06T01:42:11.642Z,0
2018-11-06T01:43:11.256Z,0
2018-11-06T01:44:11.342Z,0
2018-11-06T01:45:10.976Z,0
2018-11-06T01:46:10.966Z,0
2018-11-06T01:47:11.632Z,0
2018-11-06T01:48:10.674Z,0
2018-11-06T01:49:11.577Z,0
2018-11-06T01:50:11.285Z,0
2018-11-06T01:51:11.460Z,0
2018-11-06T01:52:10.915Z,0
2018-11-06T01:53:10.666Z,0
2018-11-06T01:54:11.180Z,0
2018-11-06T01:55:11.628Z,0
2018-11-06T01:56:11.156Z,0
2018-11-06T01:57:11.134Z,0
2018-11-06T01:58:10.612Z,0
2018-11-06T01:59:10.857Z,0
2018-11-06T02:00:11.102Z,0
2018-11-06T02:01:10.837Z,0
2018-11-06T02:02:11.077Z,0
2018-11-06T02:03:10.978Z,0
2018-11-06T02:04:10.796Z,0
2018-11-06T02:05:10.784Z,0
2018-11-06T02:06:11.520Z,0
2018-11-06T02:07:11.896Z,0
2018-11-06T02:08:11.050Z,0
2018-11-06T02:09:10.226Z,0
2018-11-06T02:10:11.066Z,0
2018-11-06T02:11:10.717Z,0
2018-11-06T02:12:10.447Z,0
2018-11-06T02:13:10.180Z,0
2018-11-06T02:14:10.679Z,0
2018-11-06T02:15:10.670Z,0
2018-11-06T02:16:10.653Z,0
2018-11-06T02:17:10.386Z,0
2018-11-06T02:18:10.641Z,0
2018-11-06T02:19:10.629Z,0
2018-11-06T02:20:10.875Z,0
2018-11-06T02:21:10.854Z,0
2018-11-06T02:22:10.584Z,0
2018-11-06T02:23:10.832Z,0
2018-11-06T02:24:10.817Z,0
2018-11-06T02:25:10.039Z,0
2018-11-06T02:26:10.802Z,0
2018-11-06T02:27:10.790Z,0
2018-11-06T02:28:10.261Z,0
2018-11-06T02:29:10.250Z,0
2018-11-06T02:30:10.797Z,0
2018-11-06T02:31:10.764Z,0
2018-11-06T02:32:10.902Z,0
2018-11-06T02:33:09.949Z,0
2018-11-06T02:34:10.194Z,0
2018-11-06T02:35:10.462Z,0
2018-11-06T02:36:10.688Z,0
2018-11-06T02:37:10.677Z,0
2018-11-06T02:38:10.412Z,0
2018-11-06T02:39:10.644Z,0
2018-11-06T02:40:10.383Z,0
2018-11-06T02:41:10.646Z,0
2018-11-06T02:42:10.615Z,0
2018-11-06T02:43:10.601Z,0
2018-11-06T02:44:10.592Z,0
2018-11-06T02:45:10.067Z,0
2018-11-06T02:46:10.319Z,0
2018-11-06T02:47:10.299Z,0
2018-11-06T02:48:10.547Z,0
2018-11-06T02:49:10.277Z,0
2018-11-06T02:50:10.262Z,0
2018-11-06T02:51:10.248Z,0
2018-11-06T02:52:10.238Z,0
2018-11-06T02:53:09.976Z,0
2018-11-06T02:54:10.221Z,0
2018-11-06T02:55:10.467Z,0
2018-11-06T02:56:10.212Z,0
2018-11-06T02:57:10.183Z,0
2018-11-06T02:58:09.918Z,0
2018-11-06T02:59:10.156Z,0
2018-11-06T03:00:09.890Z,0
2018-11-06T03:01:10.132Z,0
2018-11-06T03:02:10.386Z,0
2018-11-06T03:03:10.114Z,0
2018-11-06T03:04:10.099Z,0
2018-11-06T03:05:09.837Z,0
2018-11-06T03:06:10.075Z,0
2018-11-06T03:07:10.326Z,0
2018-11-06T03:08:10.315Z,0
2018-11-06T03:09:10.041Z,0
2018-11-06T03:10:09.856Z,0
2018-11-06T03:11:09.778Z,0
2018-11-06T03:12:10.272Z,0
2018-11-06T03:13:10.260Z,0
2018-11-06T03:14:09.990Z,0
2018-11-06T03:15:09.974Z,0
2018-11-06T03:16:09.709Z,0
2018-11-06T03:17:10.349Z,0
2018-11-06T03:18:09.943Z,0
2018-11-06T03:19:10.185Z,0
2018-11-06T03:20:09.666Z,0
2018-11-06T03:21:09.929Z,0
2018-11-06T03:22:09.898Z,0
2018-11-06T03:23:10.135Z,0
2018-11-06T03:24:09.868Z,0
2018-11-06T03:25:09.600Z,0
2018-11-06T03:26:09.584Z,0
2018-11-06T03:27:09.877Z,0
2018-11-06T03:28:09.817Z,0
2018-11-06T03:29:09.830Z,0
2018-11-06T03:30:10.053Z,0
2018-11-06T03:31:10.052Z,0
2018-11-06T03:32:09.526Z,0
2018-11-06T03:33:09.760Z,0
2018-11-06T03:34:09.495Z,0
2018-11-06T03:35:09.742Z,0
2018-11-06T03:36:09.732Z,0
2018-11-06T03:37:09.720Z,0
2018-11-06T03:38:09.957Z,0
2018-11-06T03:39:09.443Z,0
2018-11-06T03:40:09.681Z,0
2018-11-06T03:41:09.414Z,0
2018-11-06T03:42:09.657Z,0
2018-11-06T03:43:09.404Z,0
2018-11-06T03:44:09.631Z,0
2018-11-06T03:45:09.898Z,0
2018-11-06T03:46:09.866Z,0
2018-11-06T03:47:09.859Z,0
2018-11-06T03:48:09.073Z,0
2018-11-06T03:49:09.582Z,0
2018-11-06T03:50:09.593Z,0
2018-11-06T03:51:09.298Z,0
2018-11-06T03:52:09.536Z,0
2018-11-06T03:53:09.528Z,0
2018-11-06T03:54:09.522Z,0
2018-11-06T03:55:09.249Z,0
2018-11-06T03:56:09.497Z,0
2018-11-06T03:57:09.221Z,0
2018-11-06T03:58:09.474Z,0
2018-11-06T03:59:09.728Z,0
2018-11-06T04:00:09.456Z,0
2018-11-06T04:01:09.697Z,0
2018-11-06T04:02:09.420Z,0
2018-11-06T04:03:09.156Z,0
2018-11-06T04:04:09.652Z,0
2018-11-06T04:05:09.655Z,0
2018-11-06T04:06:09.123Z,0
2018-11-06T04:07:09.366Z,0
2018-11-06T04:08:09.620Z,0
2018-11-06T04:09:09.082Z,0
2018-11-06T04:10:09.075Z,0
2018-11-06T04:11:09.317Z,0
2018-11-06T04:12:09.557Z,0
2018-11-06T04:13:09.553Z,0
2018-11-06T04:14:09.049Z,0
2018-11-06T04:15:09.018Z,0
2018-11-06T04:16:09.000Z,0
2018-11-06T04:17:08.730Z,0
2018-11-06T04:18:09.234Z,0
2018-11-06T04:19:09.226Z,0
2018-11-06T04:20:09.465Z,0
2018-11-06T04:21:09.211Z,0
2018-11-06T04:22:08.937Z,0
2018-11-06T04:23:08.922Z,0
2018-11-06T04:24:09.165Z,0
2018-11-06T04:25:09.153Z,0
2018-11-06T04:26:08.624Z,0
2018-11-06T04:27:09.133Z,0
2018-11-06T04:28:08.867Z,0
2018-11-06T04:29:09.115Z,0
2018-11-06T04:30:09.101Z,0
2018-11-06T04:31:08.829Z,0
2018-11-06T04:32:09.341Z,0
2018-11-06T04:33:08.806Z,0
2018-11-06T04:34:09.048Z,0
2018-11-06T04:35:09.037Z,0
2018-11-06T04:36:08.526Z,0
2018-11-06T04:37:09.268Z,0
2018-11-06T04:38:08.997Z,0
2018-11-06T04:39:09.247Z,0
2018-11-06T04:40:08.991Z,0
2018-11-06T04:41:08.711Z,0
2018-11-06T04:42:08.954Z,0
2018-11-06T04:43:08.942Z,0
2018-11-06T04:44:08.937Z,0
2018-11-06T04:45:08.925Z,0
2018-11-06T04:46:09.165Z,0
2018-11-06T04:47:08.637Z,0
2018-11-06T04:48:08.878Z,0
2018-11-06T04:49:08.357Z,0
2018-11-06T04:50:08.867Z,0
2018-11-06T04:51:08.847Z,0
2018-11-06T04:52:08.869Z,0
2018-11-06T04:53:08.563Z,0
2018-11-06T04:54:08.815Z,0
2018-11-06T04:55:08.801Z,0
2018-11-06T04:56:09.041Z,0
2018-11-06T04:57:08.778Z,0
2018-11-06T04:58:08.518Z,0
2018-11-06T04:59:08.488Z,0
2018-11-06T05:00:08.226Z,0
2018-11-06T05:01:08.467Z,0
2018-11-06T05:02:08.570Z,0
2018-11-06T05:03:08.706Z,0
2018-11-06T05:04:08.694Z,0
2018-11-06T05:05:08.947Z,0
2018-11-06T05:06:08.408Z,0
2018-11-06T05:07:08.411Z,0
2018-11-06T05:08:08.661Z,0
2018-11-06T05:09:08.632Z,0
2018-11-06T05:10:08.371Z,0
2018-11-06T05:11:08.612Z,0
2018-11-06T05:12:08.604Z,0
2018-11-06T05:13:08.584Z,0
2018-11-06T05:14:08.424Z,0
2018-11-06T05:15:08.576Z,0
2018-11-06T05:16:08.807Z,0
2018-11-06T05:17:08.532Z,0
2018-11-06T05:18:08.265Z,0
2018-11-06T05:19:08.765Z,0
2018-11-06T05:20:08.755Z,0
2018-11-06T05:21:08.746Z,0
2018-11-06T05:22:08.473Z,0
2018-11-06T05:23:08.204Z,0
2018-11-06T05:24:08.713Z,0
2018-11-06T05:25:08.188Z,0
2018-11-06T05:26:08.448Z,0
2018-11-06T05:27:08.736Z,0
2018-11-06T05:28:08.658Z,0
2018-11-06T05:29:08.395Z,0
2018-11-06T05:30:07.863Z,0
2018-11-06T05:31:08.368Z,0
2018-11-06T05:32:08.102Z,0
2018-11-06T05:33:08.981Z,0
2018-11-06T05:34:08.332Z,0
2018-11-06T05:35:08.522Z,0
2018-11-06T05:36:08.569Z,0
2018-11-06T05:37:08.293Z,4
2018-11-06T05:38:08.022Z,4
2018-11-06T05:39:08.274Z,0
2018-11-06T05:40:08.002Z,4
2018-11-06T05:41:08.258Z,0
2018-11-06T05:42:08.232Z,4
2018-11-06T05:43:07.963Z,4
2018-11-06T05:44:07.766Z,4
2018-11-06T05:45:08.204Z,8
2018-11-06T05:46:08.184Z,8
2018-11-06T05:47:08.431Z,8
2018-11-06T05:48:08.161Z,12
2018-11-06T05:49:08.146Z,12
2018-11-06T05:50:08.395Z,16
2018-11-06T05:51:08.385Z,20
2018-11-06T05:52:07.854Z,24
2018-11-06T05:53:07.926Z,24
2018-11-06T05:54:08.349Z,32
2018-11-06T05:55:08.335Z,36
2018-11-06T05:56:08.320Z,44
2018-11-06T05:57:08.308Z,44
2018-11-06T05:58:07.781Z,56
2018-11-06T05:59:08.028Z,60
2018-11-06T06:00:08.282Z,68
2018-11-06T06:01:08.264Z,80
2018-11-06T06:02:08.247Z,88
2018-11-06T06:03:07.983Z,100
2018-11-06T06:04:07.710Z,108
2018-11-06T06:05:07.441Z,120
2018-11-06T06:06:07.946Z,136
2018-11-06T06:07:07.678Z,148
2018-11-06T06:08:07.656Z,164
2018-11-06T06:09:07.904Z,176
2018-11-06T06:10:07.634Z,196
2018-11-06T06:11:08.187Z,208
2018-11-06T06:12:08.173Z,228
2018-11-06T06:13:08.157Z,244
2018-11-06T06:14:07.508Z,264
2018-11-06T06:15:07.833Z,280
2018-11-06T06:16:07.825Z,304
2018-11-06T06:17:08.148Z,320
2018-11-06T06:18:07.797Z,340
2018-11-06T06:19:07.786Z,364
2018-11-06T06:20:07.513Z,384
2018-11-06T06:21:07.756Z,404
2018-11-06T06:22:07.748Z,424
2018-11-06T06:23:07.480Z,444
2018-11-06T06:24:07.980Z,468
2018-11-06T06:25:07.711Z,492
2018-11-06T06:26:07.701Z,512
2018-11-06T06:27:07.173Z,532
2018-11-06T06:28:07.931Z,556
2018-11-06T06:29:07.662Z,580
2018-11-06T06:30:07.654Z,600
2018-11-06T06:31:07.637Z,620
2018-11-06T06:32:07.367Z,640
2018-11-06T06:33:07.877Z,664
2018-11-06T06:34:07.607Z,680
2018-11-06T06:35:07.927Z,704
2018-11-06T06:36:07.580Z,724
2018-11-06T06:37:07.565Z,744
2018-11-06T06:38:07.551Z,764
2018-11-06T06:39:07.537Z,784
2018-11-06T06:40:08.003Z,804
2018-11-06T06:41:08.285Z,824
2018-11-06T06:42:07.502Z,840
2018-11-06T06:43:07.234Z,860
2018-11-06T06:44:07.222Z,876
2018-11-06T06:45:07.471Z,896
2018-11-06T06:46:07.793Z,912
2018-11-06T06:47:07.451Z,932
2018-11-06T06:48:06.915Z,948
2018-11-06T06:49:07.678Z,964
2018-11-06T06:50:07.667Z,980
2018-11-06T06:51:07.652Z,996
2018-11-06T06:52:06.866Z,1012
2018-11-06T06:53:07.367Z,1028
2018-11-06T06:54:07.358Z,1048
2018-11-06T06:55:07.815Z,1060
2018-11-06T06:56:07.590Z,1072
2018-11-06T06:57:07.574Z,1084
2018-11-06T06:58:07.056Z,1100
2018-11-06T06:59:07.297Z,1116
2018-11-06T07:00:07.540Z,1128
2018-11-06T07:01:07.015Z,1144
2018-11-06T07:02:07.263Z,1160
2018-11-06T07:03:07.519Z,1172
2018-11-06T07:04:06.983Z,1184
2018-11-06T07:05:06.970Z,1200
2018-11-06T07:06:06.699Z,1216
2018-11-06T07:07:06.940Z,1224
2018-11-06T07:08:07.480Z,1236
2018-11-06T07:09:07.427Z,1252
2018-11-06T07:10:06.915Z,1264
2018-11-06T07:11:07.151Z,1272
2018-11-06T07:12:07.137Z,1284
2018-11-06T07:13:07.730Z,1292
2018-11-06T07:14:06.859Z,1304
2018-11-06T07:15:06.587Z,1316
2018-11-06T07:16:07.093Z,1328
2018-11-06T07:17:07.078Z,1340
2018-11-06T07:18:06.814Z,1348
2018-11-06T07:19:07.066Z,1364
2018-11-06T07:20:07.317Z,1368
2018-11-06T07:21:06.778Z,1380
2018-11-06T07:22:07.275Z,1392
2018-11-06T07:23:06.751Z,1404
2018-11-06T07:24:06.486Z,1412
2018-11-06T07:25:06.984Z,1420
2018-11-06T07:26:06.711Z,1436
2018-11-06T07:27:07.221Z,1440
2018-11-06T07:28:07.206Z,1452
2018-11-06T07:29:06.688Z,1460
2018-11-06T07:30:06.680Z,1476
2018-11-06T07:31:07.175Z,1480
2018-11-06T07:32:06.908Z,1496
2018-11-06T07:33:06.634Z,1512
2018-11-06T07:34:06.887Z,1520
2018-11-06T07:35:07.272Z,1532
2018-11-06T07:36:06.341Z,1540
2018-11-06T07:37:06.592Z,1552
2018-11-06T07:38:06.572Z,1560
2018-11-06T07:39:06.834Z,1572
2018-11-06T07:40:06.817Z,1580
2018-11-06T07:41:07.369Z,1584
2018-11-06T07:42:06.805Z,1600
2018-11-06T07:43:06.518Z,1608
2018-11-06T07:44:06.758Z,1620
2018-11-06T07:45:06.501Z,1632
2018-11-06T07:46:06.739Z,1644
2018-11-06T07:47:06.731Z,1652
2018-11-06T07:48:06.976Z,1664
2018-11-06T07:49:06.703Z,1680
2018-11-06T07:50:06.586Z,1688
2018-11-06T07:51:06.685Z,1704
2018-11-06T07:52:06.684Z,1712
2018-11-06T07:53:06.404Z,1724
2018-11-06T07:54:06.389Z,1740
2018-11-06T07:55:06.641Z,1748
2018-11-06T07:56:06.807Z,1768
2018-11-06T07:57:06.612Z,1780
2018-11-06T07:58:06.343Z,1788
2018-11-06T07:59:06.076Z,1796
2018-11-06T08:00:06.581Z,1800
2018-11-06T08:01:06.568Z,1800
2018-11-06T08:02:06.553Z,1804
2018-11-06T08:03:06.287Z,1808
2018-11-06T08:04:06.653Z,1808
2018-11-06T08:05:06.524Z,1808
2018-11-06T08:06:06.603Z,1800
2018-11-06T08:07:06.496Z,1800
2018-11-06T08:08:06.484Z,1796
2018-11-06T08:09:06.732Z,1792
2018-11-06T08:10:05.951Z,1788
2018-11-06T08:11:06.456Z,1780
2018-11-06T08:12:06.190Z,1776
2018-11-06T08:13:06.684Z,1768
2018-11-06T08:14:06.163Z,1764
2018-11-06T08:15:06.030Z,1760
2018-11-06T08:16:06.408Z,1752
2018-11-06T08:17:06.386Z,1748
2018-11-06T08:18:06.596Z,1748
2018-11-06T08:19:06.112Z,1744
2018-11-06T08:20:06.356Z,1744
2018-11-06T08:21:06.623Z,1740
2018-11-06T08:22:06.335Z,1736
2018-11-06T08:23:06.070Z,1736
2018-11-06T08:24:06.810Z,1736
2018-11-06T08:25:05.788Z,1736
2018-11-06T08:26:06.289Z,1736
2018-11-06T08:27:06.277Z,1744
2018-11-06T08:28:06.015Z,1744
2018-11-06T08:29:06.512Z,1748
2018-11-06T08:30:06.251Z,1748
2018-11-06T08:31:08.399Z,1748
2018-11-06T08:32:09.079Z,1756
2018-11-06T08:33:06.298Z,1756
2018-11-06T08:34:06.453Z,1760
2018-11-06T08:35:06.367Z,1764
2018-11-06T08:36:06.181Z,1764
2018-11-06T08:37:06.501Z,1768
2018-11-06T08:38:06.156Z,1768
2018-11-06T08:39:06.407Z,1772
2018-11-06T08:40:06.392Z,1768
2018-11-06T08:41:06.384Z,1772
2018-11-06T08:42:06.120Z,1768
2018-11-06T08:43:06.363Z,1764
2018-11-06T08:44:06.099Z,1768
2018-11-06T08:45:06.358Z,1764
2018-11-06T08:46:05.954Z,1768
2018-11-06T08:47:06.067Z,1764
2018-11-06T08:48:06.691Z,1764
2018-11-06T08:49:05.784Z,1764
2018-11-06T08:50:06.032Z,1768
2018-11-06T08:51:06.022Z,1768
2018-11-06T08:52:06.012Z,1768
2018-11-06T08:53:05.751Z,1768
2018-11-06T08:54:06.247Z,1772
2018-11-06T08:55:05.980Z,1772
2018-11-06T08:56:05.978Z,1772
2018-11-06T08:57:05.965Z,1776
2018-11-06T08:58:05.691Z,1776
2018-11-06T08:59:05.680Z,1780
2018-11-06T09:00:05.669Z,1780
2018-11-06T09:01:05.919Z,1780
2018-11-06T09:02:06.162Z,1776
2018-11-06T09:03:05.642Z,1780
2018-11-06T09:04:05.890Z,1776
2018-11-06T09:05:05.627Z,1784
2018-11-06T09:06:06.128Z,1784
2018-11-06T09:07:05.865Z,1780
2018-11-06T09:08:06.110Z,1784
2018-11-06T09:09:06.107Z,1780
2018-11-06T09:10:05.830Z,1780
2018-11-06T09:11:05.566Z,1784
2018-11-06T09:12:05.570Z,1792
2018-11-06T09:13:05.804Z,1788
2018-11-06T09:14:05.539Z,1800
2018-11-06T09:15:05.527Z,1800
2018-11-06T09:16:05.768Z,1808
2018-11-06T09:17:06.053Z,1816
2018-11-06T09:18:05.237Z,1816
2018-11-06T09:19:05.483Z,1820
2018-11-06T09:20:05.736Z,1816
2018-11-06T09:21:05.470Z,1816
2018-11-06T09:22:05.198Z,1812
2018-11-06T09:23:05.454Z,1808
2018-11-06T09:24:05.695Z,1796
2018-11-06T09:25:05.689Z,1808
2018-11-06T09:26:05.419Z,1808
2018-11-06T09:27:05.662Z,1792
2018-11-06T09:28:05.919Z,1788
2018-11-06T09:29:05.956Z,1804
2018-11-06T09:30:05.122Z,1812
2018-11-06T09:31:05.703Z,1812
2018-11-06T09:32:05.363Z,1812
2018-11-06T09:33:05.608Z,1816
2018-11-06T09:34:05.874Z,1812
2018-11-06T09:35:05.743Z,1808
2018-11-06T09:36:05.590Z,1812
2018-11-06T09:56:13.661Z,1888
2018-11-06T09:57:14.179Z,1912
2018-11-06T09:58:14.164Z,1944
2018-11-06T09:59:14.153Z,1976
2018-11-06T10:00:14.091Z,1988
2018-11-06T10:01:13.878Z,2000
2018-11-06T10:02:14.137Z,1956
2018-11-06T10:03:13.864Z,1944
2018-11-06T10:04:14.108Z,1968
2018-11-06T10:05:14.101Z,1972
2018-11-06T10:06:14.261Z,1984
2018-11-06T10:07:15.235Z,1992
2018-11-06T10:08:13.562Z,2000
2018-11-06T10:09:14.241Z,2004
2018-11-06T10:10:13.287Z,2020
2018-11-06T10:11:13.797Z,2024
2018-11-06T10:12:14.045Z,2028
2018-11-06T10:13:14.031Z,2036
2018-11-06T10:14:14.025Z,2032
2018-11-06T10:15:14.021Z,2036
2018-11-06T10:16:13.763Z,2036
2018-11-06T10:17:13.998Z,2040
2018-11-06T10:18:13.999Z,2020
2018-11-06T10:19:13.730Z,2020
2018-11-06T10:20:13.977Z,1988
2018-11-06T10:21:13.886Z,1980
2018-11-06T10:22:13.978Z,1944
2018-11-06T10:23:13.700Z,1924
2018-11-06T10:24:13.959Z,1916
2018-11-06T10:25:13.940Z,1912
2018-11-06T10:26:13.934Z,1936
2018-11-06T10:27:13.922Z,1928
2018-11-06T10:28:13.662Z,1948
2018-11-06T10:29:13.660Z,1952
2018-11-06T10:30:13.644Z,1968
2018-11-06T10:31:13.642Z,1992
2018-11-06T10:32:13.630Z,1996
2018-11-06T10:33:13.617Z,2008
2018-11-06T10:34:13.361Z,2016
2018-11-06T10:35:13.864Z,2000
2018-11-06T10:36:13.860Z,2012
2018-11-06T10:37:13.855Z,2012
2018-11-06T10:38:13.951Z,2028
2018-11-06T10:39:13.325Z,1992
2018-11-06T10:40:13.832Z,2064
2018-11-06T10:41:13.823Z,2088
2018-11-06T10:42:13.311Z,2108
2018-11-06T10:43:13.808Z,2128
2018-11-06T10:44:13.545Z,2124
2018-11-06T10:45:13.799Z,2136
2018-11-06T10:46:13.524Z,2164
2018-11-06T10:47:13.780Z,2196
2018-11-06T10:48:13.774Z,2200
2018-11-06T10:49:13.519Z,2232
2018-11-06T10:50:13.501Z,2248
2018-11-06T10:51:13.244Z,2256
2018-11-06T10:52:13.743Z,2264
2018-11-06T10:53:13.499Z,2260
2018-11-06T10:54:13.471Z,2260
2018-11-06T10:55:13.772Z,2252
2018-11-06T10:56:13.202Z,2244
2018-11-06T10:57:13.453Z,2236
2018-11-06T10:58:14.126Z,2220
2018-11-06T10:59:13.185Z,2212
2018-11-06T11:00:13.439Z,2192
2018-11-06T11:01:13.431Z,2180
2018-11-06T11:02:13.683Z,2164
2018-11-06T11:03:13.679Z,2152
2018-11-06T11:04:13.356Z,2140
2018-11-06T11:05:13.404Z,2128
2018-11-06T11:06:13.658Z,2112
2018-11-06T11:07:13.677Z,2104
2018-11-06T11:08:13.639Z,2092
2018-11-06T11:09:13.385Z,2084
2018-11-06T11:10:13.629Z,2076
2018-11-06T11:11:13.629Z,2068
2018-11-06T11:12:13.362Z,2060
2018-11-06T11:13:13.711Z,2052
2018-11-06T11:14:13.349Z,2040
2018-11-06T11:15:12.826Z,2028
2018-11-06T11:16:13.594Z,2028
2018-11-06T11:17:13.068Z,2016
2018-11-06T11:18:13.575Z,2008
2018-11-06T11:19:13.572Z,2004
2018-11-06T11:20:13.943Z,1996
2018-11-06T11:21:13.301Z,1984
2018-11-06T11:22:13.039Z,1980
2018-11-06T11:23:13.294Z,1972
2018-11-06T11:24:13.285Z,1968
2018-11-06T11:25:13.021Z,1960
2018-11-06T11:26:12.756Z,1956
2018-11-06T11:27:13.007Z,1948
2018-11-06T11:28:13.278Z,1944
2018-11-06T11:29:12.994Z,1936
2018-11-06T11:30:13.501Z,1932
2018-11-06T11:31:13.248Z,1928
2018-11-06T11:32:13.236Z,1924
2018-11-06T11:33:13.266Z,1916
2018-11-06T11:34:13.237Z,1916
2018-11-06T11:35:13.500Z,1908
2018-11-06T11:36:12.956Z,1904
2018-11-06T11:37:13.486Z,1900
2018-11-06T11:38:13.478Z,1896
2018-11-06T11:39:13.199Z,1892
2018-11-06T11:40:13.187Z,1888
2018-11-06T11:41:13.183Z,1884
2018-11-06T11:42:13.431Z,1884
2018-11-06T11:43:13.172Z,1880
2018-11-06T11:44:13.159Z,1880
2018-11-06T11:45:13.421Z,1876
2018-11-06T11:46:13.427Z,1872
2018-11-06T11:47:13.408Z,1868
2018-11-06T11:48:13.395Z,1872
2018-11-06T11:49:13.136Z,1864
2018-11-06T11:50:12.871Z,1868
2018-11-06T11:51:13.124Z,1856
2018-11-06T11:52:13.114Z,1852
2018-11-06T11:53:13.116Z,1856
2018-11-06T11:54:13.367Z,1852
2018-11-06T11:55:13.102Z,1848
2018-11-06T11:56:12.834Z,1848
2018-11-06T11:57:12.826Z,1848
2018-11-06T11:58:13.080Z,1848
2018-11-06T11:59:13.353Z,1848
2018-11-06T12:00:13.495Z,1844
2018-11-06T12:01:13.334Z,1840
2018-11-06T12:02:13.340Z,1828
2018-11-06T12:03:13.051Z,1836
2018-11-06T12:04:12.801Z,1836
2018-11-06T12:05:13.047Z,1832
2018-11-06T12:06:13.033Z,1832
2018-11-06T12:07:13.031Z,1824
2018-11-06T12:08:13.289Z,1828
2018-11-06T12:09:13.025Z,1824
2018-11-06T12:10:12.755Z,1828
2018-11-06T12:11:13.011Z,1828
2018-11-06T12:12:13.256Z,1828
2018-11-06T12:13:13.013Z,1820
2018-11-06T12:14:12.993Z,1812
2018-11-06T12:15:13.249Z,1808
2018-11-06T12:16:12.977Z,1812
2018-11-06T12:17:13.347Z,1812
2018-11-06T12:18:13.103Z,1816
2018-11-06T12:19:12.965Z,1804
2018-11-06T12:20:12.960Z,1800
2018-11-06T12:21:12.958Z,1804
2018-11-06T12:22:12.684Z,1804
2018-11-06T12:23:13.196Z,1788
2018-11-06T12:24:13.436Z,1792
2018-11-06T12:25:14.767Z,1800
2018-11-06T12:26:13.194Z,1796
2018-11-06T12:27:13.218Z,1796
2018-11-06T12:28:12.656Z,1788
2018-11-06T12:29:12.649Z,1788
2018-11-06T12:30:13.162Z,1784
2018-11-06T12:31:12.634Z,1780
2018-11-06T12:32:12.631Z,1780
2018-11-06T12:33:13.142Z,1776
2018-11-06T12:34:12.878Z,1772
2018-11-06T12:35:12.622Z,1768
2018-11-06T12:36:12.869Z,1764
2018-11-06T12:37:13.050Z,1760
2018-11-06T12:38:12.594Z,1756
2018-11-06T12:39:12.846Z,1756
2018-11-06T12:40:13.092Z,1748
2018-11-06T12:41:13.093Z,1752
2018-11-06T12:42:12.573Z,1752
2018-11-06T12:43:13.885Z,1720
2018-11-06T12:44:13.099Z,1732
2018-11-06T12:45:12.811Z,1736
2018-11-06T12:46:13.065Z,1736
2018-11-06T12:47:13.072Z,1732
2018-11-06T12:48:13.056Z,1728
2018-11-06T12:49:12.795Z,1696
2018-11-06T12:50:13.012Z,1700
2018-11-06T12:51:12.790Z,1696
2018-11-06T12:52:12.828Z,1692
2018-11-06T12:53:13.036Z,1660
2018-11-06T12:54:13.017Z,1676
2018-11-06T12:55:13.021Z,1684
2018-11-06T12:56:13.299Z,1688
2018-11-06T12:57:12.490Z,1688
2018-11-06T12:58:12.998Z,1684
2018-11-06T12:59:12.741Z,1680
2018-11-06T13:00:12.476Z,1680
2018-11-06T13:01:12.982Z,1672
2018-11-06T13:02:12.455Z,1664
2018-11-06T13:03:13.075Z,1656
2018-11-06T13:04:12.969Z,1636
2018-11-06T13:05:12.696Z,1644
2018-11-06T13:06:12.948Z,1644
2018-11-06T13:07:12.943Z,1644
2018-11-06T13:08:12.953Z,1640
2018-11-06T13:09:12.932Z,1636
2018-11-06T13:10:12.836Z,1624
2018-11-06T13:11:12.917Z,1596
2018-11-06T13:12:12.658Z,1592
2018-11-06T13:13:12.905Z,1596
2018-11-06T13:14:12.894Z,1592
2018-11-06T13:15:12.898Z,1604
2018-11-06T13:16:13.413Z,1588
2018-11-06T13:17:13.026Z,1576
2018-11-06T13:18:12.890Z,1540
2018-11-06T13:19:12.962Z,1516
2018-11-06T13:20:12.869Z,1500
2018-11-06T13:21:12.600Z,1500
2018-11-06T13:22:12.596Z,1484
2018-11-06T13:23:12.850Z,1480
2018-11-06T13:24:12.588Z,1492
2018-11-06T13:25:12.593Z,1496
2018-11-06T13:26:13.521Z,1512
2018-11-06T13:27:12.575Z,1520
2018-11-06T13:28:12.827Z,1516
2018-11-06T13:29:12.299Z,1508
2018-11-06T13:30:12.815Z,1520
2018-11-06T13:31:12.544Z,1516
2018-11-06T13:32:12.658Z,1508
2018-11-06T13:33:12.540Z,1492
2018-11-06T13:34:12.549Z,1504
2018-11-06T13:35:12.516Z,1528
2018-11-06T13:36:12.777Z,1524
2018-11-06T13:37:12.244Z,1528
2018-11-06T13:38:12.503Z,1544
2018-11-06T13:39:12.749Z,1540
2018-11-06T13:40:12.735Z,1544
2018-11-06T13:41:12.736Z,1536
2018-11-06T13:42:12.790Z,1528
2018-11-06T13:43:13.210Z,1524
2018-11-06T13:44:14.132Z,1516
2018-11-06T13:45:14.027Z,1512
2018-11-06T13:46:12.716Z,1508
2018-11-06T13:47:12.694Z,1504
2018-11-06T13:48:12.440Z,1500
2018-11-06T13:49:12.684Z,1516
2018-11-06T13:50:12.682Z,1532
2018-11-06T13:51:12.159Z,1532
2018-11-06T13:52:13.060Z,1532
2018-11-06T13:53:12.671Z,1540
2018-11-06T13:54:12.394Z,1540
2018-11-06T13:55:12.649Z,1524
2018-11-06T13:56:12.639Z,1512
2018-11-06T13:57:12.640Z,1504
2018-11-06T13:58:12.365Z,1496
2018-11-06T13:59:12.625Z,1492
2018-11-06T14:00:12.101Z,1464
2018-11-06T14:01:12.358Z,1460
2018-11-06T14:02:12.601Z,1480
2018-11-06T14:03:12.596Z,1488
2018-11-06T14:04:12.776Z,1480
2018-11-06T14:05:12.582Z,1504
2018-11-06T14:06:12.318Z,1512
2018-11-06T14:07:12.314Z,1500
2018-11-06T14:08:12.571Z,1476
2018-11-06T14:09:12.295Z,1464
2018-11-06T14:10:12.298Z,1468
2018-11-06T14:11:12.286Z,1500
2018-11-06T14:12:12.531Z,1504
2018-11-06T14:13:12.008Z,1492
2018-11-06T14:14:12.259Z,1484